Milltown, Montana
Current Conditions -  °F | °C
As of 1:16 PM on Friday 19 Dec 2014 (Local Time) from KMSO Reporting Station
Unknown Precip Unknown Precip  
Wind Chill: 33°   Ceiling: 4200
Heat Index: 33°   Visibility: 7mi
Dew Point: 29°   Wind: 0mph
Humidity: 85%   Direction: NA
Pressure: 29.93"   Gusts: NA
Location:  46.87°N, 113.88°W
Report Text: KMSO 192016Z 00000KT 7SM UP SCT034 OVC042 01/M02 A2993 RMK AO2 UPB03 P0000 T00061017
Loading
Personal Weather Stations






























Interactive Weather Map New forecast layout! Learn more

10-Day Weather Forecast

Advertisements
Track Severe Weather on mobile